sensor_id;sensor_type;location;lat;lon;timestamp;pressure;altitude;pressure_sealevel;temperature;humidity
10474;BME280;5284;50.446;7.904;2023-03-19T00:02:26;98073.91;;;8.43;100.00
10474;BME280;5284;50.446;7.904;2023-03-19T00:07:29;98072.81;;;8.46;100.00
10474;BME280;5284;50.446;7.904;2023-03-19T00:12:32;98070.97;;;8.46;100.00
10474;BME280;5284;50.446;7.904;2023-03-19T00:17:36;98074.63;;;8.45;100.00
10474;BME280;5284;50.446;7.904;2023-03-19T00:22:40;98079.22;;;8.43;100.00
10474;BME280;5284;50.446;7.904;2023-03-19T00:27:43;98084.41;;;8.45;100.00
10474;BME280;5284;50.446;7.904;2023-03-19T00:32:49;98093.09;;;8.47;100.00
10474;BME280;5284;50.446;7.904;2023-03-19T00:37:52;98094.91;;;8.46;100.00
10474;BME280;5284;50.446;7.904;2023-03-19T00:42:56;98090.44;;;8.47;100.00
10474;BME280;5284;50.446;7.904;2023-03-19T00:48:00;98090.28;;;8.48;100.00
10474;BME280;5284;50.446;7.904;2023-03-19T00:53:03;98086.56;;;8.51;100.00
10474;BME280;5284;50.446;7.904;2023-03-19T00:58:08;98096.22;;;8.52;100.00
10474;BME280;5284;50.446;7.904;2023-03-19T01:03:13;98087.16;;;8.54;100.00
10474;BME280;5284;50.446;7.904;2023-03-19T01:08:17;98090.38;;;8.58;100.00
10474;BME280;5284;50.446;7.904;2023-03-19T01:13:21;98097.09;;;8.62;100.00
10474;BME280;5284;50.446;7.904;2023-03-19T01:18:25;98096.84;;;8.65;100.00
10474;BME280;5284;50.446;7.904;2023-03-19T01:23:29;98097.31;;;8.70;100.00
10474;BME280;5284;50.446;7.904;2023-03-19T01:28:32;98097.19;;;8.71;100.00
10474;BME280;5284;50.446;7.904;2023-03-19T01:33:37;98098.75;;;8.74;100.00
10474;BME280;5284;50.446;7.904;2023-03-19T01:38:54;98095.38;;;8.72;100.00
10474;BME280;5284;50.446;7.904;2023-03-19T01:43:58;98090.97;;;8.61;100.00
10474;BME280;5284;50.446;7.904;2023-03-19T01:49:17;98100.63;;;8.62;100.00
10474;BME280;5284;50.446;7.904;2023-03-19T01:54:28;98100.63;;;8.62;100.00
10474;BME280;5284;50.446;7.904;2023-03-19T02:00:08;98095.31;;;8.62;100.00
10474;BME280;5284;50.446;7.904;2023-03-19T02:05:20;98084.09;;;8.59;100.00
10474;BME280;5284;50.446;7.904;2023-03-19T02:10:32;98084.22;;;8.57;100.00
10474;BME280;5284;50.446;7.904;2023-03-19T02:15:36;98089.53;;;8.57;100.00
10474;BME280;5284;50.446;7.904;2023-03-19T02:20:47;98088.50;;;8.49;100.00
10474;BME280;5284;50.446;7.904;2023-03-19T02:26:00;98098.53;;;8.45;100.00
10474;BME280;5284;50.446;7.904;2023-03-19T02:31:07;98088.88;;;8.44;100.00
10474;BME280;5284;50.446;7.904;2023-03-19T02:36:15;98089.13;;;8.41;100.00
10474;BME280;5284;50.446;7.904;2023-03-19T02:41:25;98079.28;;;8.32;100.00
10474;BME280;5284;50.446;7.904;2023-03-19T02:46:28;98089.31;;;8.29;100.00
10474;BME280;5284;50.446;7.904;2023-03-19T02:51:31;98086.91;;;8.26;100.00
10474;BME280;5284;50.446;7.904;2023-03-19T02:56:35;98088.13;;;8.22;100.00
10474;BME280;5284;50.446;7.904;2023-03-19T03:01:41;98096.69;;;8.14;100.00
10474;BME280;5284;50.446;7.904;2023-03-19T03:06:44;98102.66;;;8.07;100.00
10474;BME280;5284;50.446;7.904;2023-03-19T03:11:49;98106.28;;;7.95;100.00
10474;BME280;5284;50.446;7.904;2023-03-19T03:16:52;98107.91;;;7.75;100.00
10474;BME280;5284;50.446;7.904;2023-03-19T03:21:55;98111.56;;;7.63;100.00
10474;BME280;5284;50.446;7.904;2023-03-19T03:26:59;98117.13;;;7.39;100.00
10474;BME280;5284;50.446;7.904;2023-03-19T03:32:02;98122.19;;;7.31;100.00
10474;BME280;5284;50.446;7.904;2023-03-19T03:37:05;98117.34;;;7.14;100.00
10474;BME280;5284;50.446;7.904;2023-03-19T03:42:11;98123.75;;;7.00;100.00
10474;BME280;5284;50.446;7.904;2023-03-19T03:47:15;98118.06;;;6.94;100.00
10474;BME280;5284;50.446;7.904;2023-03-19T03:52:18;98119.63;;;6.74;100.00
10474;BME280;5284;50.446;7.904;2023-03-19T03:57:23;98119.56;;;6.63;100.00
10474;BME280;5284;50.446;7.904;2023-03-19T04:02:26;98113.41;;;6.52;100.00
10474;BME280;5284;50.446;7.904;2023-03-19T04:07:30;98115.19;;;6.40;100.00
10474;BME280;5284;50.446;7.904;2023-03-19T04:12:36;98116.59;;;6.33;100.00
10474;BME280;5284;50.446;7.904;2023-03-19T04:17:39;98130.63;;;6.23;100.00
10474;BME280;5284;50.446;7.904;2023-03-19T04:22:43;98134.13;;;6.23;100.00
10474;BME280;5284;50.446;7.904;2023-03-19T04:27:47;98136.44;;;6.04;100.00
10474;BME280;5284;50.446;7.904;2023-03-19T04:32:50;98135.81;;;6.01;100.00
10474;BME280;5284;50.446;7.904;2023-03-19T04:37:54;98129.09;;;5.85;100.00
10474;BME280;5284;50.446;7.904;2023-03-19T04:42:58;98134.06;;;5.89;100.00
10474;BME280;5284;50.446;7.904;2023-03-19T04:48:06;98139.47;;;5.75;100.00
10474;BME280;5284;50.446;7.904;2023-03-19T04:53:10;98136.94;;;5.86;100.00
10474;BME280;5284;50.446;7.904;2023-03-19T04:58:16;98138.72;;;5.86;100.00
10474;BME280;5284;50.446;7.904;2023-03-19T05:03:26;98141.06;;;5.90;100.00
10474;BME280;5284;50.446;7.904;2023-03-19T05:08:29;98148.53;;;5.96;100.00
10474;BME280;5284;50.446;7.904;2023-03-19T05:13:34;98146.63;;;5.98;100.00
10474;BME280;5284;50.446;7.904;2023-03-19T05:18:38;98148.31;;;5.99;100.00
10474;BME280;5284;50.446;7.904;2023-03-19T05:23:42;98147.75;;;6.06;100.00
10474;BME280;5284;50.446;7.904;2023-03-19T05:28:46;98153.47;;;6.13;100.00
10474;BME280;5284;50.446;7.904;2023-03-19T05:33:53;98161.69;;;6.21;100.00
10474;BME280;5284;50.446;7.904;2023-03-19T05:38:56;98170.75;;;6.29;100.00
10474;BME280;5284;50.446;7.904;2023-03-19T05:44:07;98167.66;;;6.35;100.00
10474;BME280;5284;50.446;7.904;2023-03-19T05:49:37;98168.63;;;6.45;100.00
10474;BME280;5284;50.446;7.904;2023-03-19T05:54:41;98171.69;;;6.52;100.00
10474;BME280;5284;50.446;7.904;2023-03-19T05:59:54;98173.97;;;6.56;100.00
10474;BME280;5284;50.446;7.904;2023-03-19T06:05:14;98179.44;;;6.66;100.00
10474;BME280;5284;50.446;7.904;2023-03-19T06:10:18;98180.56;;;6.74;100.00
10474;BME280;5284;50.446;7.904;2023-03-19T06:15:26;98189.25;;;6.87;100.00
10474;BME280;5284;50.446;7.904;2023-03-19T06:20:49;98179.91;;;7.05;100.00
10474;BME280;5284;50.446;7.904;2023-03-19T06:25:52;98190.03;;;7.22;100.00
10474;BME280;5284;50.446;7.904;2023-03-19T06:31:00;98194.53;;;7.44;100.00
10474;BME280;5284;50.446;7.904;2023-03-19T06:36:34;98203.81;;;7.60;100.00
10474;BME280;5284;50.446;7.904;2023-03-19T06:41:38;98200.06;;;7.73;100.00
10474;BME280;5284;50.446;7.904;2023-03-19T06:46:53;98203.09;;;7.80;100.00
10474;BME280;5284;50.446;7.904;2023-03-19T06:51:57;98203.56;;;7.85;100.00
10474;BME280;5284;50.446;7.904;2023-03-19T06:57:01;98216.00;;;7.95;100.00
10474;BME280;5284;50.446;7.904;2023-03-19T07:02:05;98214.50;;;8.13;100.00
10474;BME280;5284;50.446;7.904;2023-03-19T07:07:10;98223.09;;;8.28;100.00
10474;BME280;5284;50.446;7.904;2023-03-19T07:12:14;98227.91;;;8.45;100.00
10474;BME280;5284;50.446;7.904;2023-03-19T07:17:20;98232.91;;;8.70;100.00
10474;BME280;5284;50.446;7.904;2023-03-19T07:22:23;98231.56;;;8.96;100.00
10474;BME280;5284;50.446;7.904;2023-03-19T07:27:26;98234.22;;;9.16;100.00
10474;BME280;5284;50.446;7.904;2023-03-19T07:32:31;98227.16;;;9.46;100.00
10474;BME280;5284;50.446;7.904;2023-03-19T07:37:34;98225.00;;;9.61;100.00
10474;BME280;5284;50.446;7.904;2023-03-19T07:42:37;98226.06;;;9.79;100.00
10474;BME280;5284;50.446;7.904;2023-03-19T07:47:43;98233.91;;;10.01;100.00
10474;BME280;5284;50.446;7.904;2023-03-19T07:52:47;98232.28;;;10.19;100.00
10474;BME280;5284;50.446;7.904;2023-03-19T07:57:51;98222.53;;;10.38;100.00
10474;BME280;5284;50.446;7.904;2023-03-19T08:02:55;98234.06;;;10.48;100.00
10474;BME280;5284;50.446;7.904;2023-03-19T08:07:58;98240.38;;;10.66;100.00
10474;BME280;5284;50.446;7.904;2023-03-19T08:13:03;98250.06;;;10.67;100.00
10474;BME280;5284;50.446;7.904;2023-03-19T08:18:08;98252.19;;;10.63;100.00
10474;BME280;5284;50.446;7.904;2023-03-19T08:23:11;98253.31;;;10.70;100.00
10474;BME280;5284;50.446;7.904;2023-03-19T08:28:22;98253.59;;;10.86;100.00
10474;BME280;5284;50.446;7.904;2023-03-19T08:33:28;98259.94;;;11.04;100.00
10474;BME280;5284;50.446;7.904;2023-03-19T08:38:31;98268.50;;;11.17;100.00
10474;BME280;5284;50.446;7.904;2023-03-19T08:43:35;98263.16;;;11.27;100.00
10474;BME280;5284;50.446;7.904;2023-03-19T08:48:40;98264.97;;;11.36;100.00
10474;BME280;5284;50.446;7.904;2023-03-19T08:53:44;98268.78;;;11.43;100.00
10474;BME280;5284;50.446;7.904;2023-03-19T08:58:49;98268.91;;;11.32;100.00
10474;BME280;5284;50.446;7.904;2023-03-19T09:03:53;98273.91;;;11.92;100.00
10474;BME280;5284;50.446;7.904;2023-03-19T09:08:56;98282.34;;;11.87;100.00
10474;BME280;5284;50.446;7.904;2023-03-19T09:14:07;98284.59;;;11.82;100.00
10474;BME280;5284;50.446;7.904;2023-03-19T09:19:13;98277.75;;;12.16;100.00
10474;BME280;5284;50.446;7.904;2023-03-19T09:24:16;98284.50;;;12.47;100.00
10474;BME280;5284;50.446;7.904;2023-03-19T09:29:20;98294.16;;;12.94;100.00
10474;BME280;5284;50.446;7.904;2023-03-19T09:34:32;98299.53;;;13.11;100.00
10474;BME280;5284;50.446;7.904;2023-03-19T09:39:35;98310.66;;;13.07;100.00
10474;BME280;5284;50.446;7.904;2023-03-19T09:44:40;98307.53;;;12.94;100.00
10474;BME280;5284;50.446;7.904;2023-03-19T09:49:47;98310.81;;;13.23;100.00
10474;BME280;5284;50.446;7.904;2023-03-19T09:55:00;98309.28;;;13.03;100.00
10474;BME280;5284;50.446;7.904;2023-03-19T10:00:19;98308.03;;;12.70;100.00
10474;BME280;5284;50.446;7.904;2023-03-19T10:05:35;98318.13;;;12.59;100.00
10474;BME280;5284;50.446;7.904;2023-03-19T10:10:48;98318.66;;;12.62;100.00
10474;BME280;5284;50.446;7.904;2023-03-19T10:15:53;98316.94;;;12.98;100.00
10474;BME280;5284;50.446;7.904;2023-03-19T10:21:02;98317.47;;;13.71;100.00
10474;BME280;5284;50.446;7.904;2023-03-19T10:26:12;98315.16;;;13.76;100.00
10474;BME280;5284;50.446;7.904;2023-03-19T10:31:25;98318.28;;;13.89;100.00
10474;BME280;5284;50.446;7.904;2023-03-19T10:36:33;98313.00;;;14.22;100.00
10474;BME280;5284;50.446;7.904;2023-03-19T10:41:44;98309.06;;;14.34;100.00
10474;BME280;5284;50.446;7.904;2023-03-19T10:46:56;98320.72;;;14.25;100.00
10474;BME280;5284;50.446;7.904;2023-03-19T10:52:00;98315.53;;;14.24;100.00
10474;BME280;5284;50.446;7.904;2023-03-19T10:57:04;98314.59;;;13.90;100.00
10474;BME280;5284;50.446;7.904;2023-03-19T11:02:16;98317.72;;;14.28;100.00
10474;BME280;5284;50.446;7.904;2023-03-19T11:07:24;98308.75;;;14.37;100.00
10474;BME280;5284;50.446;7.904;2023-03-19T11:12:32;98316.25;;;14.34;100.00
10474;BME280;5284;50.446;7.904;2023-03-19T11:17:37;98314.84;;;14.89;100.00
10474;BME280;5284;50.446;7.904;2023-03-19T11:22:43;98315.81;;;15.29;100.00
10474;BME280;5284;50.446;7.904;2023-03-19T11:27:57;98309.94;;;15.33;100.00
10474;BME280;5284;50.446;7.904;2023-03-19T11:33:22;98317.31;;;15.24;100.00
10474;BME280;5284;50.446;7.904;2023-03-19T11:38:39;98325.25;;;14.50;100.00
10474;BME280;5284;50.446;7.904;2023-03-19T11:43:53;98333.06;;;13.93;100.00
10474;BME280;5284;50.446;7.904;2023-03-19T11:49:27;98334.72;;;13.51;100.00
10474;BME280;5284;50.446;7.904;2023-03-19T11:54:45;98338.75;;;13.03;100.00
10474;BME280;5284;50.446;7.904;2023-03-19T12:00:05;98350.78;;;12.53;100.00
10474;BME280;5284;50.446;7.904;2023-03-19T12:05:22;98356.97;;;12.08;100.00
10474;BME280;5284;50.446;7.904;2023-03-19T12:10:37;98350.00;;;11.69;100.00
10474;BME280;5284;50.446;7.904;2023-03-19T12:15:48;98356.34;;;11.49;100.00
10474;BME280;5284;50.446;7.904;2023-03-19T12:20:58;98352.66;;;11.40;100.00
10474;BME280;5284;50.446;7.904;2023-03-19T12:26:16;98344.81;;;11.29;100.00
10474;BME280;5284;50.446;7.904;2023-03-19T12:31:40;98336.94;;;11.47;100.00
10474;BME280;5284;50.446;7.904;2023-03-19T12:36:49;98334.84;;;11.60;100.00
10474;BME280;5284;50.446;7.904;2023-03-19T12:41:57;98327.94;;;11.76;100.00
10474;BME280;5284;50.446;7.904;2023-03-19T12:47:03;98325.09;;;11.87;100.00
10474;BME280;5284;50.446;7.904;2023-03-19T12:52:16;98312.97;;;12.02;100.00
10474;BME280;5284;50.446;7.904;2023-03-19T12:57:28;98318.41;;;12.19;100.00
10474;BME280;5284;50.446;7.904;2023-03-19T13:02:37;98324.44;;;12.31;100.00
10474;BME280;5284;50.446;7.904;2023-03-19T13:07:58;98334.97;;;12.32;100.00
10474;BME280;5284;50.446;7.904;2023-03-19T13:13:19;98328.66;;;12.24;100.00
10474;BME280;5284;50.446;7.904;2023-03-19T13:18:34;98327.16;;;12.12;100.00
10474;BME280;5284;50.446;7.904;2023-03-19T13:23:40;98326.72;;;12.80;100.00
10474;BME280;5284;50.446;7.904;2023-03-19T13:28:58;98319.59;;;12.71;100.00
10474;BME280;5284;50.446;7.904;2023-03-19T13:34:06;98315.41;;;13.13;100.00
10474;BME280;5284;50.446;7.904;2023-03-19T13:39:13;98318.28;;;13.46;100.00
10474;BME280;5284;50.446;7.904;2023-03-19T13:44:33;98308.47;;;14.15;100.00
10474;BME280;5284;50.446;7.904;2023-03-19T13:50:01;98311.03;;;14.07;100.00
10474;BME280;5284;50.446;7.904;2023-03-19T13:55:32;98316.69;;;14.96;100.00
10474;BME280;5284;50.446;7.904;2023-03-19T14:00:59;98306.66;;;14.98;100.00
10474;BME280;5284;50.446;7.904;2023-03-19T14:06:03;98310.72;;;14.61;100.00
10474;BME280;5284;50.446;7.904;2023-03-19T14:11:07;98307.75;;;14.13;100.00
10474;BME280;5284;50.446;7.904;2023-03-19T14:16:16;98299.97;;;13.84;100.00
10474;BME280;5284;50.446;7.904;2023-03-19T14:21:31;98296.16;;;14.12;100.00
10474;BME280;5284;50.446;7.904;2023-03-19T14:26:42;98289.72;;;14.23;100.00
10474;BME280;5284;50.446;7.904;2023-03-19T14:31:50;98289.78;;;14.13;100.00
10474;BME280;5284;50.446;7.904;2023-03-19T14:37:00;98283.50;;;14.22;100.00
10474;BME280;5284;50.446;7.904;2023-03-19T14:42:06;98273.34;;;14.67;100.00
10474;BME280;5284;50.446;7.904;2023-03-19T14:47:28;98281.75;;;14.80;100.00
10474;BME280;5284;50.446;7.904;2023-03-19T14:52:40;98275.63;;;14.21;100.00
10474;BME280;5284;50.446;7.904;2023-03-19T14:57:45;98280.88;;;14.30;100.00
10474;BME280;5284;50.446;7.904;2023-03-19T15:02:50;98277.69;;;14.09;100.00
10474;BME280;5284;50.446;7.904;2023-03-19T15:07:59;98278.19;;;14.30;100.00
10474;BME280;5284;50.446;7.904;2023-03-19T15:13:26;98280.09;;;14.95;100.00
10474;BME280;5284;50.446;7.904;2023-03-19T15:18:34;98269.34;;;14.87;100.00
10474;BME280;5284;50.446;7.904;2023-03-19T15:23:40;98262.59;;;14.67;100.00
10474;BME280;5284;50.446;7.904;2023-03-19T15:28:47;98267.63;;;14.70;100.00
10474;BME280;5284;50.446;7.904;2023-03-19T15:33:56;98275.00;;;14.68;100.00
10474;BME280;5284;50.446;7.904;2023-03-19T15:39:03;98277.34;;;14.30;100.00
10474;BME280;5284;50.446;7.904;2023-03-19T15:44:10;98276.44;;;13.96;100.00
10474;BME280;5284;50.446;7.904;2023-03-19T15:49:22;98285.34;;;13.96;100.00
10474;BME280;5284;50.446;7.904;2023-03-19T15:54:27;98287.81;;;14.15;100.00
10474;BME280;5284;50.446;7.904;2023-03-19T15:59:30;98294.84;;;13.91;100.00
10474;BME280;5284;50.446;7.904;2023-03-19T16:04:36;98294.19;;;13.72;100.00
10474;BME280;5284;50.446;7.904;2023-03-19T16:10:23;98299.88;;;13.69;100.00
10474;BME280;5284;50.446;7.904;2023-03-19T16:15:39;98307.63;;;13.54;100.00
10474;BME280;5284;50.446;7.904;2023-03-19T16:20:57;98318.53;;;13.61;100.00
10474;BME280;5284;50.446;7.904;2023-03-19T16:26:06;98322.06;;;13.61;100.00
10474;BME280;5284;50.446;7.904;2023-03-19T16:31:23;98323.31;;;13.67;100.00
10474;BME280;5284;50.446;7.904;2023-03-19T16:36:31;98327.75;;;14.01;100.00
10474;BME280;5284;50.446;7.904;2023-03-19T16:41:34;98324.72;;;14.21;100.00
10474;BME280;5284;50.446;7.904;2023-03-19T16:46:38;98322.28;;;14.10;100.00
10474;BME280;5284;50.446;7.904;2023-03-19T16:51:43;98338.69;;;13.82;100.00
10474;BME280;5284;50.446;7.904;2023-03-19T16:56:53;98342.28;;;13.56;100.00
10474;BME280;5284;50.446;7.904;2023-03-19T17:01:56;98345.19;;;13.27;100.00
10474;BME280;5284;50.446;7.904;2023-03-19T17:07:06;98347.78;;;13.02;100.00
10474;BME280;5284;50.446;7.904;2023-03-19T17:12:13;98354.03;;;12.83;100.00
10474;BME280;5284;50.446;7.904;2023-03-19T17:17:18;98354.28;;;12.63;100.00
10474;BME280;5284;50.446;7.904;2023-03-19T17:22:23;98366.91;;;12.43;100.00
10474;BME280;5284;50.446;7.904;2023-03-19T17:27:28;98366.09;;;12.24;100.00
10474;BME280;5284;50.446;7.904;2023-03-19T17:32:37;98378.25;;;12.09;100.00
10474;BME280;5284;50.446;7.904;2023-03-19T17:37:49;98376.03;;;11.95;100.00
10474;BME280;5284;50.446;7.904;2023-03-19T17:42:54;98384.63;;;11.70;100.00
10474;BME280;5284;50.446;7.904;2023-03-19T17:47:57;98386.25;;;11.52;100.00
10474;BME280;5284;50.446;7.904;2023-03-19T17:53:02;98397.47;;;11.37;100.00
10474;BME280;5284;50.446;7.904;2023-03-19T17:58:05;98397.03;;;11.22;100.00
10474;BME280;5284;50.446;7.904;2023-03-19T18:03:11;98404.31;;;11.01;100.00
10474;BME280;5284;50.446;7.904;2023-03-19T18:08:20;98402.88;;;10.88;100.00
10474;BME280;5284;50.446;7.904;2023-03-19T18:13:24;98401.94;;;10.68;100.00
10474;BME280;5284;50.446;7.904;2023-03-19T18:18:30;98410.53;;;10.42;100.00
10474;BME280;5284;50.446;7.904;2023-03-19T18:23:34;98407.75;;;10.23;100.00
10474;BME280;5284;50.446;7.904;2023-03-19T18:28:37;98409.72;;;10.01;100.00
10474;BME280;5284;50.446;7.904;2023-03-19T18:33:46;98421.63;;;9.86;100.00
10474;BME280;5284;50.446;7.904;2023-03-19T18:38:54;98429.59;;;9.65;100.00
10474;BME280;5284;50.446;7.904;2023-03-19T18:43:57;98430.97;;;9.49;100.00
10474;BME280;5284;50.446;7.904;2023-03-19T18:49:05;98443.25;;;9.40;100.00
10474;BME280;5284;50.446;7.904;2023-03-19T18:54:10;98446.19;;;9.26;100.00
10474;BME280;5284;50.446;7.904;2023-03-19T18:59:19;98460.72;;;9.11;100.00
10474;BME280;5284;50.446;7.904;2023-03-19T19:04:24;98458.22;;;8.99;100.00
10474;BME280;5284;50.446;7.904;2023-03-19T19:09:31;98465.97;;;8.91;100.00
10474;BME280;5284;50.446;7.904;2023-03-19T19:14:36;98481.78;;;8.93;100.00
10474;BME280;5284;50.446;7.904;2023-03-19T19:19:39;98479.72;;;8.96;100.00
10474;BME280;5284;50.446;7.904;2023-03-19T19:24:45;98482.75;;;9.03;100.00
10474;BME280;5284;50.446;7.904;2023-03-19T19:29:49;98481.03;;;9.02;100.00
10474;BME280;5284;50.446;7.904;2023-03-19T19:34:52;98490.84;;;9.01;100.00
10474;BME280;5284;50.446;7.904;2023-03-19T19:39:58;98490.00;;;9.11;100.00
10474;BME280;5284;50.446;7.904;2023-03-19T19:45:01;98503.16;;;9.13;100.00
10474;BME280;5284;50.446;7.904;2023-03-19T19:50:08;98498.94;;;9.10;100.00
10474;BME280;5284;50.446;7.904;2023-03-19T19:55:19;98505.34;;;9.08;100.00
10474;BME280;5284;50.446;7.904;2023-03-19T20:00:23;98506.44;;;9.06;100.00
10474;BME280;5284;50.446;7.904;2023-03-19T20:05:30;98515.41;;;9.05;100.00
10474;BME280;5284;50.446;7.904;2023-03-19T20:10:36;98520.81;;;9.03;100.00
10474;BME280;5284;50.446;7.904;2023-03-19T20:15:39;98524.69;;;8.99;100.00
10474;BME280;5284;50.446;7.904;2023-03-19T20:20:49;98529.41;;;8.96;100.00
10474;BME280;5284;50.446;7.904;2023-03-19T20:25:58;98533.03;;;8.95;100.00
10474;BME280;5284;50.446;7.904;2023-03-19T20:31:03;98537.75;;;9.02;100.00
10474;BME280;5284;50.446;7.904;2023-03-19T20:36:12;98540.06;;;9.07;100.00
10474;BME280;5284;50.446;7.904;2023-03-19T20:41:18;98552.97;;;9.11;100.00
10474;BME280;5284;50.446;7.904;2023-03-19T20:46:25;98563.38;;;9.14;100.00
10474;BME280;5284;50.446;7.904;2023-03-19T20:51:28;98566.91;;;9.14;100.00
10474;BME280;5284;50.446;7.904;2023-03-19T20:56:36;98571.88;;;9.19;100.00
10474;BME280;5284;50.446;7.904;2023-03-19T21:01:40;98575.25;;;9.21;100.00
10474;BME280;5284;50.446;7.904;2023-03-19T21:06:43;98582.63;;;9.07;100.00
10474;BME280;5284;50.446;7.904;2023-03-19T21:11:55;98581.91;;;9.05;100.00
10474;BME280;5284;50.446;7.904;2023-03-19T21:16:59;98582.00;;;9.03;100.00
10474;BME280;5284;50.446;7.904;2023-03-19T21:22:02;98591.06;;;9.01;100.00
10474;BME280;5284;50.446;7.904;2023-03-19T21:27:14;98594.47;;;9.03;100.00
10474;BME280;5284;50.446;7.904;2023-03-19T21:32:21;98598.81;;;9.04;100.00
10474;BME280;5284;50.446;7.904;2023-03-19T21:37:25;98594.81;;;9.09;100.00
10474;BME280;5284;50.446;7.904;2023-03-19T21:42:30;98605.22;;;9.12;100.00
10474;BME280;5284;50.446;7.904;2023-03-19T21:47:35;98601.00;;;9.09;100.00
10474;BME280;5284;50.446;7.904;2023-03-19T21:52:38;98599.16;;;9.10;100.00
10474;BME280;5284;50.446;7.904;2023-03-19T21:58:01;98594.00;;;9.08;100.00
10474;BME280;5284;50.446;7.904;2023-03-19T22:03:04;98600.13;;;9.09;100.00
10474;BME280;5284;50.446;7.904;2023-03-19T22:08:07;98597.63;;;9.07;100.00
10474;BME280;5284;50.446;7.904;2023-03-19T22:13:17;98605.59;;;9.07;100.00
10474;BME280;5284;50.446;7.904;2023-03-19T22:18:22;98591.56;;;9.06;100.00
10474;BME280;5284;50.446;7.904;2023-03-19T22:23:25;98597.84;;;9.05;100.00
10474;BME280;5284;50.446;7.904;2023-03-19T22:28:32;98599.66;;;9.04;100.00
10474;BME280;5284;50.446;7.904;2023-03-19T22:33:36;98596.50;;;8.99;100.00
10474;BME280;5284;50.446;7.904;2023-03-19T22:38:40;98596.84;;;8.95;100.00
10474;BME280;5284;50.446;7.904;2023-03-19T22:43:54;98589.84;;;8.94;100.00
10474;BME280;5284;50.446;7.904;2023-03-19T22:48:59;98598.53;;;8.96;100.00
10474;BME280;5284;50.446;7.904;2023-03-19T22:54:09;98592.63;;;8.92;100.00
10474;BME280;5284;50.446;7.904;2023-03-19T22:59:15;98597.00;;;8.93;100.00
10474;BME280;5284;50.446;7.904;2023-03-19T23:04:20;98602.16;;;8.84;100.00
10474;BME280;5284;50.446;7.904;2023-03-19T23:09:25;98597.81;;;8.83;100.00
10474;BME280;5284;50.446;7.904;2023-03-19T23:14:30;98607.00;;;8.79;100.00
10474;BME280;5284;50.446;7.904;2023-03-19T23:19:35;98600.56;;;8.81;100.00
10474;BME280;5284;50.446;7.904;2023-03-19T23:24:39;98608.69;;;8.80;100.00
10474;BME280;5284;50.446;7.904;2023-03-19T23:29:45;98614.00;;;8.80;100.00
10474;BME280;5284;50.446;7.904;2023-03-19T23:34:56;98621.97;;;8.80;100.00
10474;BME280;5284;50.446;7.904;2023-03-19T23:40:03;98621.63;;;8.84;100.00
10474;BME280;5284;50.446;7.904;2023-03-19T23:45:16;98623.69;;;8.92;100.00
10474;BME280;5284;50.446;7.904;2023-03-19T23:50:24;98627.69;;;8.97;100.00
10474;BME280;5284;50.446;7.904;2023-03-19T23:55:27;98617.53;;;9.02;100.00
